Terminal Aerodrome Forecast
Issued by NWS

Home | Current Version | Previous Version | Text Only | Print | Product List | Glossary On
Versions: 1 2 3 4 5 6 7 8 9 10 11 12 13 14 15
000
FTUS43 KIND 121700
TAFLAF
TAF
KLAF 121730Z 1218/1318 21010KT 5SM -SHRA BR SCT015 BKN035
     FM121900 21010KT P6SM SCT020 BKN035
     FM122100 21011KT P6SM SCT040 BKN100
     FM130900 22012KT P6SM SCT050 BKN250 PROB30 1310/1316 3SM TSRA
      OVC012CB=

USA.gov is the U.S. government's official web portal to all federal, state and local government web resources and services.